createdAt,value
2022-07-27T00:01:41.221Z,16.04
2022-07-27T00:04:21.044Z,15.94
2022-07-27T00:06:48.103Z,15.87
2022-07-27T00:09:15.401Z,15.78
2022-07-27T00:11:42.233Z,15.72
2022-07-27T00:14:08.907Z,15.75
2022-07-27T00:16:35.762Z,15.76
2022-07-27T00:19:02.474Z,15.74
2022-07-27T00:21:29.103Z,15.72
2022-07-27T00:23:56.621Z,15.68
2022-07-27T00:26:23.309Z,15.64
2022-07-27T00:28:50.672Z,15.61
2022-07-27T00:31:18.001Z,15.47
2022-07-27T00:33:44.730Z,15.30
2022-07-27T00:36:11.641Z,15.20
2022-07-27T00:38:38.563Z,15.25
2022-07-27T00:41:05.513Z,15.34
2022-07-27T00:43:32.251Z,15.41
2022-07-27T00:45:58.883Z,15.47
2022-07-27T00:48:26.571Z,15.47
2022-07-27T00:50:55.498Z,15.46
2022-07-27T00:53:22.277Z,15.47
2022-07-27T00:55:49.115Z,15.55
2022-07-27T00:58:16.962Z,15.53
2022-07-27T01:00:44.530Z,15.61
2022-07-27T01:03:11.288Z,15.41
2022-07-27T01:05:43.282Z,15.21
2022-07-27T01:08:13.896Z,15.17
2022-07-27T01:10:41.596Z,15.10
2022-07-27T01:13:12.495Z,15.20
2022-07-27T01:15:40.875Z,15.25
2022-07-27T01:18:26.987Z,15.25
2022-07-27T01:20:54.261Z,15.29
2022-07-27T01:23:20.912Z,15.28
2022-07-27T01:25:47.764Z,15.23
2022-07-27T01:28:14.354Z,15.16
2022-07-27T01:30:40.969Z,15.19
2022-07-27T01:33:09.678Z,15.20
2022-07-27T01:35:38.597Z,15.17
2022-07-27T01:38:06.987Z,15.15
2022-07-27T01:40:36.638Z,14.95
2022-07-27T01:43:05.133Z,14.90
2022-07-27T01:45:31.843Z,14.73
2022-07-27T01:47:58.455Z,14.59
2022-07-27T01:50:25.126Z,14.53
2022-07-27T01:52:51.719Z,14.52
2022-07-27T01:55:18.319Z,14.53
2022-07-27T01:57:44.998Z,14.53
2022-07-27T02:00:12.496Z,14.55
2022-07-27T02:02:39.853Z,14.60
2022-07-27T02:05:07.755Z,14.58
2022-07-27T02:07:34.438Z,14.55
2022-07-27T02:10:01.052Z,14.49
2022-07-27T02:12:36.668Z,14.42
2022-07-27T02:15:06.279Z,14.42
2022-07-27T02:17:33.643Z,14.47
2022-07-27T02:20:02.451Z,14.56
2022-07-27T02:22:29.108Z,14.59
2022-07-27T02:24:55.907Z,14.58
2022-07-27T02:27:22.744Z,14.54
2022-07-27T02:29:49.475Z,14.53
2022-07-27T02:32:16.118Z,14.52
2022-07-27T02:34:42.983Z,14.50
2022-07-27T02:37:09.663Z,14.52
2022-07-27T02:39:36.282Z,14.54
2022-07-27T02:42:03.765Z,14.52
2022-07-27T02:44:31.224Z,14.49
2022-07-27T02:47:01.471Z,14.37
2022-07-27T02:49:28.175Z,14.25
2022-07-27T02:51:55.017Z,14.23
2022-07-27T02:54:24.594Z,14.26
2022-07-27T02:56:56.102Z,14.29
2022-07-27T02:59:23.399Z,14.41
2022-07-27T03:01:50.435Z,14.51
2022-07-27T03:04:18.230Z,14.64
2022-07-27T03:06:45.072Z,14.78
2022-07-27T03:09:12.049Z,14.82
2022-07-27T03:11:39.105Z,14.88
2022-07-27T03:14:05.849Z,14.95
2022-07-27T03:16:32.627Z,14.97
2022-07-27T03:18:59.286Z,15.03
2022-07-27T03:21:26.151Z,15.10
2022-07-27T03:23:52.833Z,15.16
2022-07-27T03:26:19.490Z,15.24
2022-07-27T03:28:46.120Z,15.30
2022-07-27T03:31:12.905Z,15.34
2022-07-27T03:33:39.655Z,15.36
2022-07-27T03:36:07.281Z,15.37
2022-07-27T03:38:34.362Z,15.39
2022-07-27T03:41:00.990Z,15.36
2022-07-27T03:43:27.616Z,15.37
2022-07-27T03:45:54.299Z,15.37
2022-07-27T03:48:20.967Z,15.37
2022-07-27T03:50:47.597Z,15.39
2022-07-27T03:53:14.755Z,15.35
2022-07-27T03:55:41.395Z,15.26
2022-07-27T03:58:08.003Z,15.19
2022-07-27T04:00:34.660Z,15.09
2022-07-27T04:03:01.518Z,15.04
2022-07-27T04:05:29.557Z,15.06
2022-07-27T04:07:56.801Z,15.04
2022-07-27T04:10:29.257Z,15.07
2022-07-27T04:12:58.647Z,15.02
2022-07-27T04:15:26.344Z,15.11
2022-07-27T04:17:57.669Z,15.19
2022-07-27T04:20:25.168Z,15.27
2022-07-27T04:22:51.826Z,15.31
2022-07-27T04:25:18.517Z,15.34
2022-07-27T04:27:45.206Z,15.36
2022-07-27T04:30:12.190Z,15.31
2022-07-27T04:32:39.203Z,15.23
2022-07-27T04:35:06.968Z,15.21
2022-07-27T04:37:35.047Z,15.15
2022-07-27T04:40:01.953Z,15.15
2022-07-27T04:42:29.852Z,15.20
2022-07-27T04:44:56.874Z,15.25
2022-07-27T04:47:23.603Z,15.28
2022-07-27T04:49:50.234Z,15.43
2022-07-27T04:52:17.621Z,15.48
2022-07-27T04:54:45.440Z,15.47
2022-07-27T04:57:12.147Z,15.42
2022-07-27T04:59:38.821Z,15.36
2022-07-27T05:02:05.544Z,15.40
2022-07-27T05:04:32.197Z,15.46
2022-07-27T05:06:58.933Z,15.49
2022-07-27T05:09:25.522Z,15.51
2022-07-27T05:11:52.402Z,15.40
2022-07-27T05:14:21.298Z,15.43
2022-07-27T05:16:48.924Z,15.45
2022-07-27T05:19:15.991Z,15.43
2022-07-27T05:21:42.975Z,15.48
2022-07-27T05:24:10.163Z,15.67
2022-07-27T05:26:37.386Z,15.87
2022-07-27T05:29:04.488Z,16.01
2022-07-27T05:31:31.340Z,16.19
2022-07-27T05:33:58.766Z,16.33
2022-07-27T05:36:25.914Z,16.45
2022-07-27T05:38:52.658Z,16.62
2022-07-27T05:41:24.566Z,16.69
2022-07-27T05:43:51.600Z,16.79
2022-07-27T05:46:18.338Z,16.86
2022-07-27T05:48:45.050Z,16.97
2022-07-27T05:51:11.867Z,16.94
2022-07-27T05:53:38.575Z,17.05
2022-07-27T05:56:05.745Z,17.06
2022-07-27T05:58:32.360Z,17.06
2022-07-27T06:00:59.623Z,17.08
2022-07-27T06:03:26.980Z,17.15
2022-07-27T06:06:13.585Z,17.21
2022-07-27T06:08:40.231Z,17.52
2022-07-27T06:11:06.883Z,17.72
2022-07-27T06:13:36.488Z,17.79
2022-07-27T06:16:04.285Z,17.85
2022-07-27T06:18:31.080Z,17.85
2022-07-27T06:20:59.230Z,17.86
2022-07-27T06:23:26.115Z,17.90
2022-07-27T06:25:52.850Z,17.84
2022-07-27T06:28:19.510Z,17.91
2022-07-27T06:30:47.486Z,18.11
2022-07-27T06:33:14.630Z,18.26
2022-07-27T06:35:41.788Z,18.23
2022-07-27T06:38:09.141Z,18.33
2022-07-27T06:40:36.201Z,18.50
2022-07-27T06:43:02.891Z,18.69
2022-07-27T06:45:29.665Z,19.02
2022-07-27T06:47:56.315Z,19.49
2022-07-27T06:50:23.544Z,19.37
2022-07-27T06:52:50.197Z,19.08
2022-07-27T06:55:17.020Z,19.19
2022-07-27T06:57:43.993Z,19.26
2022-07-27T07:00:11.817Z,19.35
2022-07-27T07:02:39.679Z,19.37
2022-07-27T07:05:06.746Z,19.38
2022-07-27T07:07:33.419Z,19.34
2022-07-27T07:10:00.093Z,19.32
2022-07-27T07:12:28.371Z,19.48
2022-07-27T07:14:54.991Z,19.64
2022-07-27T07:17:21.595Z,19.72
2022-07-27T07:19:48.215Z,19.78
2022-07-27T07:22:15.114Z,19.85
2022-07-27T07:24:42.092Z,20.00
2022-07-27T07:27:08.723Z,20.08
2022-07-27T07:29:35.314Z,20.22
2022-07-27T07:32:02.004Z,20.42
2022-07-27T07:34:29.554Z,20.34
2022-07-27T07:36:56.270Z,20.24
2022-07-27T07:39:25.578Z,20.25
2022-07-27T07:41:55.820Z,20.28
2022-07-27T07:44:22.450Z,20.66
2022-07-27T07:46:49.226Z,21.07
2022-07-27T07:49:16.687Z,21.26
2022-07-27T07:51:43.830Z,21.32
2022-07-27T07:54:10.779Z,21.41
2022-07-27T07:56:37.765Z,21.51
2022-07-27T07:59:05.015Z,21.46
2022-07-27T08:01:31.806Z,21.63
2022-07-27T08:03:58.498Z,21.91
2022-07-27T08:06:25.288Z,22.06
2022-07-27T08:08:51.943Z,22.11
2022-07-27T08:11:18.626Z,22.05
2022-07-27T08:13:45.665Z,22.12
2022-07-27T08:16:12.460Z,22.35
2022-07-27T08:18:39.206Z,22.21
2022-07-27T08:21:05.818Z,22.20
2022-07-27T08:23:32.750Z,22.18
2022-07-27T08:26:04.148Z,22.13
2022-07-27T08:28:37.234Z,22.26
2022-07-27T08:31:14.577Z,22.26
2022-07-27T08:33:42.090Z,22.47
2022-07-27T08:36:08.678Z,22.60
2022-07-27T08:38:35.276Z,22.77
2022-07-27T08:41:03.676Z,22.94
2022-07-27T08:43:31.944Z,23.03
2022-07-27T08:46:01.160Z,23.41
2022-07-27T08:48:31.275Z,23.54
2022-07-27T08:50:58.299Z,23.77
2022-07-27T08:53:25.654Z,23.99
2022-07-27T08:55:52.557Z,23.90
2022-07-27T08:58:19.317Z,24.17
2022-07-27T09:00:49.931Z,24.16
2022-07-27T09:03:20.526Z,23.82
2022-07-27T09:05:51.078Z,23.55
2022-07-27T09:08:28.845Z,23.99
2022-07-27T09:10:59.267Z,23.87
2022-07-27T09:13:30.399Z,23.71
2022-07-27T09:16:21.714Z,23.88
2022-07-27T09:18:58.466Z,23.85
2022-07-27T09:21:25.949Z,23.98
2022-07-27T09:23:59.715Z,24.20
2022-07-27T09:26:32.599Z,24.32
2022-07-27T09:29:03.742Z,24.20
2022-07-27T09:31:31.317Z,24.32
2022-07-27T09:34:02.499Z,24.67
2022-07-27T09:36:31.145Z,24.30
2022-07-27T09:39:05.503Z,24.15
2022-07-27T09:41:47.648Z,24.36
2022-07-27T09:44:33.055Z,24.48
2022-07-27T09:47:19.731Z,24.69
2022-07-27T09:49:46.699Z,24.67
2022-07-27T09:52:23.632Z,24.94
2022-07-27T09:54:50.942Z,25.20
2022-07-27T09:57:18.562Z,25.41
2022-07-27T09:59:46.189Z,26.35
2022-07-27T10:02:14.541Z,26.23
2022-07-27T10:04:41.851Z,26.02
2022-07-27T10:07:13.203Z,26.54
2022-07-27T10:09:40.758Z,26.88
2022-07-27T10:12:08.047Z,26.70
2022-07-27T10:14:35.531Z,26.78
2022-07-27T10:17:03.007Z,27.04
2022-07-27T10:19:41.323Z,26.48
2022-07-27T10:22:07.961Z,26.47
2022-07-27T10:24:36.927Z,26.32
2022-07-27T10:27:31.610Z,25.89
2022-07-27T10:30:00.805Z,25.53
2022-07-27T10:32:33.203Z,25.55
2022-07-27T10:35:01.527Z,26.01
2022-07-27T10:37:33.331Z,26.59
2022-07-27T10:40:23.587Z,26.87
2022-07-27T10:43:15.086Z,26.82
2022-07-27T10:45:50.679Z,26.86
2022-07-27T10:48:46.019Z,26.77
2022-07-27T10:51:16.892Z,26.32
2022-07-27T10:54:10.954Z,25.62
2022-07-27T10:56:45.733Z,25.55
2022-07-27T10:59:12.475Z,25.58
2022-07-27T11:01:57.334Z,25.95
2022-07-27T11:04:24.688Z,26.24
2022-07-27T11:07:30.063Z,26.35
2022-07-27T11:10:04.324Z,26.59
2022-07-27T11:12:31.716Z,27.10
2022-07-27T11:14:59.035Z,27.13
2022-07-27T11:20:14.727Z,26.61
2022-07-27T11:25:28.525Z,26.95
2022-07-27T11:27:55.194Z,27.20
2022-07-27T11:30:27.349Z,27.32
2022-07-27T11:32:55.228Z,27.68
2022-07-27T11:35:22.178Z,27.95
2022-07-27T11:38:06.110Z,26.97
2022-07-27T11:40:56.971Z,26.49
2022-07-27T11:43:33.653Z,26.61
2022-07-27T11:46:19.737Z,26.61
2022-07-27T11:49:09.629Z,27.38
2022-07-27T11:51:39.551Z,27.34
2022-07-27T11:54:08.821Z,26.44
2022-07-27T11:56:37.681Z,26.36
2022-07-27T11:59:19.221Z,27.04
2022-07-27T12:01:55.375Z,26.97
2022-07-27T12:04:24.628Z,27.03
2022-07-27T12:07:03.288Z,25.96
2022-07-27T12:09:38.344Z,26.08
2022-07-27T12:12:21.838Z,26.16
2022-07-27T12:14:54.379Z,26.14
2022-07-27T12:17:31.673Z,26.19
2022-07-27T12:20:05.807Z,25.95
2022-07-27T12:22:51.224Z,25.97
2022-07-27T12:25:17.788Z,25.89
2022-07-27T12:27:56.610Z,25.86
2022-07-27T12:30:42.470Z,26.15
2022-07-27T12:33:37.942Z,27.12
2022-07-27T12:36:09.020Z,28.45
2022-07-27T12:38:43.658Z,28.50
2022-07-27T12:41:10.789Z,27.94
2022-07-27T12:43:37.978Z,28.42
2022-07-27T12:46:12.944Z,28.25
2022-07-27T12:48:41.919Z,27.10
2022-07-27T12:51:10.151Z,26.58
2022-07-27T12:53:38.900Z,26.02
2022-07-27T12:56:10.158Z,25.62
2022-07-27T12:58:37.694Z,25.59
2022-07-27T13:01:11.515Z,25.62
2022-07-27T13:03:38.336Z,25.49
2022-07-27T13:06:10.659Z,25.74
2022-07-27T13:08:39.565Z,27.22
2022-07-27T13:11:06.229Z,28.04
2022-07-27T13:13:32.922Z,30.00
2022-07-27T13:15:59.555Z,29.73
2022-07-27T13:18:26.449Z,28.61
2022-07-27T13:20:53.161Z,29.94
2022-07-27T13:23:20.574Z,30.84
2022-07-27T13:25:47.296Z,29.78
2022-07-27T13:28:13.960Z,29.54
2022-07-27T13:30:40.745Z,29.12
2022-07-27T13:33:08.049Z,28.40
2022-07-27T13:35:35.275Z,27.66
2022-07-27T13:38:02.166Z,29.34
2022-07-27T13:40:28.911Z,31.48
2022-07-27T13:42:55.511Z,31.65
2022-07-27T13:45:22.368Z,30.27
2022-07-27T13:47:49.006Z,30.01
2022-07-27T13:50:19.259Z,29.87
2022-07-27T13:52:49.955Z,29.68
2022-07-27T13:55:17.311Z,28.82
2022-07-27T13:57:44.564Z,29.43
2022-07-27T14:00:12.130Z,29.84
2022-07-27T14:02:39.733Z,30.90
2022-07-27T14:05:07.039Z,31.53
2022-07-27T14:07:37.557Z,31.21
2022-07-27T14:10:23.120Z,30.51
2022-07-27T14:12:49.791Z,28.78
2022-07-27T14:15:16.705Z,28.14
2022-07-27T14:17:43.475Z,29.92
2022-07-27T14:20:10.931Z,31.69
2022-07-27T14:22:37.544Z,32.32
2022-07-27T14:25:04.681Z,33.52
2022-07-27T14:27:36.609Z,33.35
2022-07-27T14:30:06.852Z,31.82
2022-07-27T14:32:34.575Z,30.41
2022-07-27T14:35:01.508Z,28.96
2022-07-27T14:37:28.187Z,28.46
2022-07-27T14:39:54.764Z,27.26
2022-07-27T14:42:23.756Z,26.93
2022-07-27T14:44:50.418Z,26.60
2022-07-27T14:47:17.330Z,26.82
2022-07-27T14:49:44.083Z,27.94
2022-07-27T14:52:13.568Z,29.61
2022-07-27T14:54:45.196Z,30.48
2022-07-27T14:57:12.488Z,31.62
2022-07-27T14:59:39.369Z,32.74
2022-07-27T15:02:06.546Z,33.24
2022-07-27T15:04:33.727Z,31.75
2022-07-27T15:07:00.919Z,30.27
2022-07-27T15:09:30.418Z,31.31
2022-07-27T15:11:58.307Z,31.98
2022-07-27T15:14:25.187Z,32.94
2022-07-27T15:16:52.703Z,33.83
2022-07-27T15:19:19.612Z,33.33
2022-07-27T15:21:47.189Z,33.10
2022-07-27T15:24:14.128Z,32.66
2022-07-27T15:26:40.980Z,32.90
2022-07-27T15:29:10.025Z,32.44
2022-07-27T15:31:43.295Z,31.58
2022-07-27T15:34:10.116Z,29.43
2022-07-27T15:36:43.614Z,28.51
2022-07-27T15:39:13.903Z,27.18
2022-07-27T15:41:40.970Z,27.36
2022-07-27T15:44:08.270Z,27.49
2022-07-27T15:46:35.066Z,27.47
2022-07-27T15:49:01.889Z,27.09
2022-07-27T15:51:28.681Z,27.06
2022-07-27T15:53:56.894Z,27.03
2022-07-27T15:56:24.278Z,27.07
2022-07-27T15:58:50.872Z,27.83
2022-07-27T16:01:18.038Z,28.34
2022-07-27T16:03:48.777Z,28.04
2022-07-27T16:06:15.987Z,27.89
2022-07-27T16:08:44.143Z,26.97
2022-07-27T16:11:10.971Z,26.92
2022-07-27T16:13:37.612Z,26.99
2022-07-27T16:16:25.090Z,26.87
2022-07-27T16:18:53.533Z,25.92
2022-07-27T16:21:22.521Z,26.47
2022-07-27T16:23:51.019Z,27.15
2022-07-27T16:26:17.891Z,27.73
2022-07-27T16:28:47.204Z,29.33
2022-07-27T16:31:16.063Z,28.61
2022-07-27T16:33:44.483Z,28.90
2022-07-27T16:36:12.448Z,28.89
2022-07-27T16:38:49.832Z,29.49
2022-07-27T16:41:19.013Z,29.17
2022-07-27T16:43:46.105Z,29.16
2022-07-27T16:46:13.314Z,30.16
2022-07-27T16:48:41.695Z,30.73
2022-07-27T16:51:13.985Z,31.27
2022-07-27T16:53:42.540Z,30.21
2022-07-27T16:56:10.008Z,30.60
2022-07-27T16:58:38.012Z,31.45
2022-07-27T17:01:05.595Z,30.28
2022-07-27T17:03:32.382Z,29.12
2022-07-27T17:06:03.632Z,28.00
2022-07-27T17:08:32.544Z,27.22
2022-07-27T17:11:00.495Z,27.90
2022-07-27T17:13:33.757Z,27.59
2022-07-27T17:16:05.448Z,27.43
2022-07-27T17:18:38.982Z,26.44
2022-07-27T17:21:07.472Z,26.25
2022-07-27T17:23:37.957Z,26.02
2022-07-27T17:26:06.621Z,25.61
2022-07-27T17:28:36.538Z,25.35
2022-07-27T17:31:04.097Z,25.43
2022-07-27T17:33:31.326Z,25.35
2022-07-27T17:35:58.646Z,25.09
2022-07-27T17:38:25.708Z,24.99
2022-07-27T17:40:52.474Z,24.89
2022-07-27T17:43:19.117Z,24.72
2022-07-27T17:45:45.835Z,24.50
2022-07-27T17:48:12.512Z,24.54
2022-07-27T17:50:39.117Z,24.36
2022-07-27T17:53:05.865Z,24.20
2022-07-27T17:55:34.689Z,24.02
2022-07-27T17:58:01.320Z,24.00
2022-07-27T18:00:28.032Z,23.90
2022-07-27T18:02:55.061Z,23.81
2022-07-27T18:05:21.793Z,23.69
2022-07-27T18:07:51.789Z,23.66
2022-07-27T18:10:18.445Z,23.56
2022-07-27T18:12:45.074Z,23.48
2022-07-27T18:15:30.388Z,23.39
2022-07-27T18:17:57.028Z,23.32
2022-07-27T18:20:23.690Z,23.14
2022-07-27T18:22:50.382Z,22.93
2022-07-27T18:25:17.033Z,22.77
2022-07-27T18:27:44.882Z,22.51
2022-07-27T18:30:12.314Z,22.16
2022-07-27T18:32:39.434Z,22.03
2022-07-27T18:35:06.575Z,21.60
2022-07-27T18:37:33.242Z,21.38
2022-07-27T18:39:59.945Z,21.16
2022-07-27T18:42:26.610Z,20.97
2022-07-27T18:44:54.044Z,20.71
2022-07-27T18:47:20.757Z,20.39
2022-07-27T18:49:47.388Z,20.16
2022-07-27T18:52:14.116Z,19.91
2022-07-27T18:54:40.875Z,19.85
2022-07-27T18:57:07.500Z,19.82
2022-07-27T18:59:40.084Z,19.88
2022-07-27T19:02:08.186Z,19.96
2022-07-27T19:04:35.093Z,19.98
2022-07-27T19:07:03.488Z,20.03
2022-07-27T19:09:33.598Z,19.96
2022-07-27T19:12:01.837Z,19.81
2022-07-27T19:14:30.177Z,19.61
2022-07-27T19:16:56.806Z,19.47
2022-07-27T19:19:23.815Z,19.43
2022-07-27T19:21:50.739Z,19.37
2022-07-27T19:24:18.110Z,19.22
2022-07-27T19:26:44.716Z,19.19
2022-07-27T19:29:13.309Z,19.17
2022-07-27T19:31:40.414Z,19.08
2022-07-27T19:34:07.130Z,19.00
2022-07-27T19:36:33.771Z,18.89
2022-07-27T19:39:05.553Z,18.96
2022-07-27T19:41:34.660Z,18.84
2022-07-27T19:44:01.351Z,18.90
2022-07-27T19:46:28.071Z,18.81
2022-07-27T19:48:54.975Z,18.82
2022-07-27T19:51:21.821Z,18.77
2022-07-27T19:53:49.051Z,18.80
2022-07-27T19:56:15.969Z,18.91
2022-07-27T19:58:42.752Z,19.03
2022-07-27T20:01:10.415Z,19.05
2022-07-27T20:03:53.318Z,19.02
2022-07-27T20:06:25.933Z,19.01
2022-07-27T20:08:56.046Z,19.03
2022-07-27T20:11:22.976Z,19.01
2022-07-27T20:13:49.597Z,18.93
2022-07-27T20:16:17.730Z,18.88
2022-07-27T20:18:44.431Z,18.76
2022-07-27T20:21:23.179Z,18.67
2022-07-27T20:23:52.136Z,18.53
2022-07-27T20:26:19.742Z,18.50
2022-07-27T20:28:47.224Z,18.44
2022-07-27T20:31:13.967Z,18.39
2022-07-27T20:33:40.695Z,18.37
2022-07-27T20:36:07.515Z,18.29
2022-07-27T20:38:34.109Z,18.26
2022-07-27T20:41:00.878Z,18.27
2022-07-27T20:43:27.782Z,18.17
2022-07-27T20:45:54.846Z,18.19
2022-07-27T20:48:21.528Z,18.15
2022-07-27T20:50:48.129Z,18.10
2022-07-27T20:53:15.072Z,18.10
2022-07-27T20:55:42.744Z,18.09
2022-07-27T20:58:09.783Z,18.10
2022-07-27T21:00:36.400Z,18.12
2022-07-27T21:03:03.335Z,18.13
2022-07-27T21:05:29.942Z,18.15
2022-07-27T21:07:56.867Z,18.09
2022-07-27T21:10:24.623Z,18.11
2022-07-27T21:12:51.720Z,18.12
2022-07-27T21:15:18.437Z,18.16
2022-07-27T21:17:45.105Z,18.15
2022-07-27T21:20:13.552Z,18.16
2022-07-27T21:22:40.851Z,18.18
2022-07-27T21:25:07.738Z,18.13
2022-07-27T21:27:34.372Z,18.17
2022-07-27T21:30:01.286Z,18.15
2022-07-27T21:32:28.945Z,18.07
2022-07-27T21:34:55.556Z,18.06
2022-07-27T21:37:22.172Z,18.02
2022-07-27T21:39:48.796Z,17.96
2022-07-27T21:42:15.413Z,17.94
2022-07-27T21:44:42.118Z,18.02
2022-07-27T21:47:13.479Z,17.87
2022-07-27T21:49:40.966Z,17.78
2022-07-27T21:52:07.576Z,17.80
2022-07-27T21:54:34.202Z,17.73
2022-07-27T21:57:00.802Z,17.67
2022-07-27T21:59:27.429Z,17.67
2022-07-27T22:01:54.083Z,17.62
2022-07-27T22:04:21.309Z,17.56
2022-07-27T22:06:47.973Z,17.47
2022-07-27T22:09:14.555Z,17.38
2022-07-27T22:11:41.361Z,17.36
2022-07-27T22:14:08.030Z,17.33
2022-07-27T22:16:34.731Z,17.29
2022-07-27T22:19:01.436Z,17.21
2022-07-27T22:21:28.866Z,17.15
2022-07-27T22:23:55.475Z,17.13
2022-07-27T22:26:22.634Z,17.07
2022-07-27T22:28:49.286Z,17.15
2022-07-27T22:31:22.006Z,17.13
2022-07-27T22:33:50.272Z,17.02
2022-07-27T22:36:16.948Z,16.97
2022-07-27T22:38:43.609Z,16.95
2022-07-27T22:41:10.400Z,16.80
2022-07-27T22:43:37.107Z,16.67
2022-07-27T22:46:04.857Z,16.62
2022-07-27T22:48:31.755Z,16.50
2022-07-27T22:50:58.638Z,16.33
2022-07-27T22:53:25.504Z,16.26
2022-07-27T22:55:52.231Z,16.20
2022-07-27T22:58:18.885Z,16.14
2022-07-27T23:00:45.501Z,16.15
2022-07-27T23:03:12.186Z,16.22
2022-07-27T23:05:38.911Z,16.25
2022-07-27T23:08:05.966Z,16.28
2022-07-27T23:10:47.693Z,16.29
2022-07-27T23:13:18.933Z,16.29
2022-07-27T23:15:46.415Z,16.25
2022-07-27T23:18:13.676Z,16.22
2022-07-27T23:20:41.207Z,16.15
2022-07-27T23:23:15.545Z,16.10
2022-07-27T23:25:48.200Z,16.10
2022-07-27T23:28:16.334Z,16.11
2022-07-27T23:30:43.481Z,16.08
2022-07-27T23:33:10.424Z,16.01
2022-07-27T23:35:37.025Z,16.03
2022-07-27T23:38:03.833Z,16.10
2022-07-27T23:40:30.716Z,16.07
2022-07-27T23:42:57.321Z,16.04
2022-07-27T23:45:23.973Z,15.99
2022-07-27T23:47:50.584Z,15.99
2022-07-27T23:50:17.253Z,15.94
2022-07-27T23:52:43.914Z,15.90
2022-07-27T23:55:10.672Z,15.86
2022-07-27T23:57:37.288Z,15.80
